sensor_id;sensor_type;location;lat;lon;timestamp;pressure;altitude;pressure_sealevel;temperature;humidity
17785;BME280;9016;53.582;10.062;2023-04-07T00:01:58;101703.66;;;8.27;44.20
17785;BME280;9016;53.582;10.062;2023-04-07T00:04:27;101702.78;;;8.27;43.89
17785;BME280;9016;53.582;10.062;2023-04-07T00:06:55;101710.22;;;8.16;44.52
17785;BME280;9016;53.582;10.062;2023-04-07T00:09:23;101711.22;;;8.13;44.43
17785;BME280;9016;53.582;10.062;2023-04-07T00:11:52;101706.56;;;8.20;44.10
17785;BME280;9016;53.582;10.062;2023-04-07T00:14:19;101705.91;;;8.13;44.69
17785;BME280;9016;53.582;10.062;2023-04-07T00:16:47;101708.41;;;8.18;44.72
17785;BME280;9016;53.582;10.062;2023-04-07T00:19:15;101700.59;;;8.13;44.75
17785;BME280;9016;53.582;10.062;2023-04-07T00:21:45;101709.47;;;8.12;44.59
17785;BME280;9016;53.582;10.062;2023-04-07T00:24:13;101707.31;;;7.98;45.26
17785;BME280;9016;53.582;10.062;2023-04-07T00:26:52;101705.34;;;8.03;45.24
17785;BME280;9016;53.582;10.062;2023-04-07T00:29:22;101707.97;;;8.05;44.94
17785;BME280;9016;53.582;10.062;2023-04-07T00:31:50;101710.75;;;8.00;44.88
17785;BME280;9016;53.582;10.062;2023-04-07T00:34:18;101712.88;;;7.91;45.33
17785;BME280;9016;53.582;10.062;2023-04-07T00:36:48;101704.84;;;7.92;45.17
17785;BME280;9016;53.582;10.062;2023-04-07T00:39:18;101716.28;;;7.94;45.02
17785;BME280;9016;53.582;10.062;2023-04-07T00:41:46;101708.41;;;7.93;45.44
17785;BME280;9016;53.582;10.062;2023-04-07T00:44:14;101705.72;;;7.93;45.02
17785;BME280;9016;53.582;10.062;2023-04-07T00:46:42;101712.81;;;7.92;45.48
17785;BME280;9016;53.582;10.062;2023-04-07T00:49:11;101707.66;;;7.88;45.60
17785;BME280;9016;53.582;10.062;2023-04-07T00:51:39;101703.53;;;7.79;46.04
17785;BME280;9016;53.582;10.062;2023-04-07T00:54:11;101711.84;;;7.69;45.85
17785;BME280;9016;53.582;10.062;2023-04-07T00:56:39;101712.16;;;7.60;46.27
17785;BME280;9016;53.582;10.062;2023-04-07T00:59:09;101706.63;;;7.66;45.83
17785;BME280;9016;53.582;10.062;2023-04-07T01:01:43;101712.81;;;7.66;46.12
17785;BME280;9016;53.582;10.062;2023-04-07T01:04:19;101707.00;;;7.55;45.88
17785;BME280;9016;53.582;10.062;2023-04-07T01:06:50;101712.06;;;7.63;45.93
17785;BME280;9016;53.582;10.062;2023-04-07T01:09:33;101699.34;;;7.46;46.24
17785;BME280;9016;53.582;10.062;2023-04-07T01:12:09;101707.41;;;7.43;46.16
17785;BME280;9016;53.582;10.062;2023-04-07T01:14:44;101708.25;;;7.44;46.17
17785;BME280;9016;53.582;10.062;2023-04-07T01:17:14;101705.66;;;7.42;46.41
17785;BME280;9016;53.582;10.062;2023-04-07T01:19:46;101707.19;;;7.49;46.19
17785;BME280;9016;53.582;10.062;2023-04-07T01:22:17;101701.13;;;7.46;46.38
17785;BME280;9016;53.582;10.062;2023-04-07T01:25:05;101704.13;;;7.35;46.44
17785;BME280;9016;53.582;10.062;2023-04-07T01:27:48;101708.72;;;7.29;46.52
17785;BME280;9016;53.582;10.062;2023-04-07T01:30:26;101701.69;;;7.28;46.87
17785;BME280;9016;53.582;10.062;2023-04-07T01:32:57;101696.41;;;7.28;46.67
17785;BME280;9016;53.582;10.062;2023-04-07T01:35:29;101703.63;;;7.23;46.85
17785;BME280;9016;53.582;10.062;2023-04-07T01:37:58;101705.94;;;7.06;47.22
17785;BME280;9016;53.582;10.062;2023-04-07T01:40:27;101708.53;;;7.07;47.13
17785;BME280;9016;53.582;10.062;2023-04-07T01:42:56;101707.41;;;7.14;47.11
17785;BME280;9016;53.582;10.062;2023-04-07T01:45:27;101711.81;;;7.15;46.81
17785;BME280;9016;53.582;10.062;2023-04-07T01:47:58;101704.81;;;7.13;47.18
17785;BME280;9016;53.582;10.062;2023-04-07T01:50:28;101705.88;;;7.07;46.99
17785;BME280;9016;53.582;10.062;2023-04-07T01:52:57;101703.34;;;7.04;47.45
17785;BME280;9016;53.582;10.062;2023-04-07T01:55:25;101714.59;;;7.11;47.14
17785;BME280;9016;53.582;10.062;2023-04-07T01:57:53;101706.03;;;7.03;47.17
17785;BME280;9016;53.582;10.062;2023-04-07T02:00:21;101702.56;;;7.00;47.50
17785;BME280;9016;53.582;10.062;2023-04-07T02:02:54;101709.75;;;6.95;47.46
17785;BME280;9016;53.582;10.062;2023-04-07T02:05:27;101707.97;;;6.96;47.45
17785;BME280;9016;53.582;10.062;2023-04-07T02:07:59;101715.88;;;6.97;47.12
17785;BME280;9016;53.582;10.062;2023-04-07T02:10:34;101713.38;;;6.93;47.40
17785;BME280;9016;53.582;10.062;2023-04-07T02:13:04;101713.34;;;6.94;47.52
17785;BME280;9016;53.582;10.062;2023-04-07T02:15:35;101712.50;;;6.92;47.46
17785;BME280;9016;53.582;10.062;2023-04-07T02:18:06;101716.75;;;6.98;47.19
17785;BME280;9016;53.582;10.062;2023-04-07T02:20:38;101712.50;;;6.92;47.50
17785;BME280;9016;53.582;10.062;2023-04-07T02:23:07;101710.50;;;7.00;47.26
17785;BME280;9016;53.582;10.062;2023-04-07T02:25:36;101714.22;;;6.95;47.11
17785;BME280;9016;53.582;10.062;2023-04-07T02:28:04;101714.25;;;6.93;47.24
17785;BME280;9016;53.582;10.062;2023-04-07T02:30:33;101719.81;;;6.84;47.49
17785;BME280;9016;53.582;10.062;2023-04-07T02:33:01;101717.44;;;6.75;47.32
17785;BME280;9016;53.582;10.062;2023-04-07T02:35:30;101713.78;;;6.79;47.15
17785;BME280;9016;53.582;10.062;2023-04-07T02:37:58;101714.72;;;6.77;47.69
17785;BME280;9016;53.582;10.062;2023-04-07T02:40:27;101721.69;;;6.81;47.54
17785;BME280;9016;53.582;10.062;2023-04-07T02:42:55;101717.47;;;6.74;47.55
17785;BME280;9016;53.582;10.062;2023-04-07T02:45:23;101720.00;;;6.78;47.21
17785;BME280;9016;53.582;10.062;2023-04-07T02:47:51;101724.53;;;6.73;47.37
17785;BME280;9016;53.582;10.062;2023-04-07T02:50:19;101723.59;;;6.76;47.51
17785;BME280;9016;53.582;10.062;2023-04-07T02:52:51;101722.81;;;6.72;47.32
17785;BME280;9016;53.582;10.062;2023-04-07T02:55:19;101732.59;;;6.70;47.93
17785;BME280;9016;53.582;10.062;2023-04-07T02:57:47;101726.38;;;6.71;47.14
17785;BME280;9016;53.582;10.062;2023-04-07T03:00:15;101729.94;;;6.70;47.61
17785;BME280;9016;53.582;10.062;2023-04-07T03:02:43;101730.97;;;6.65;47.37
17785;BME280;9016;53.582;10.062;2023-04-07T03:05:11;101735.34;;;6.67;47.41
17785;BME280;9016;53.582;10.062;2023-04-07T03:07:39;101726.69;;;6.61;47.45
17785;BME280;9016;53.582;10.062;2023-04-07T03:10:10;101726.63;;;6.64;47.29
17785;BME280;9016;53.582;10.062;2023-04-07T03:12:38;101730.78;;;6.72;46.98
17785;BME280;9016;53.582;10.062;2023-04-07T03:15:07;101731.88;;;6.65;47.50
17785;BME280;9016;53.582;10.062;2023-04-07T03:17:35;101727.25;;;6.72;46.53
17785;BME280;9016;53.582;10.062;2023-04-07T03:20:03;101731.38;;;6.82;46.59
17785;BME280;9016;53.582;10.062;2023-04-07T03:22:32;101735.63;;;6.87;46.51
17785;BME280;9016;53.582;10.062;2023-04-07T03:24:59;101730.81;;;6.71;46.85
17785;BME280;9016;53.582;10.062;2023-04-07T03:27:29;101730.03;;;6.67;47.14
17785;BME280;9016;53.582;10.062;2023-04-07T03:29:57;101740.63;;;6.67;46.84
17785;BME280;9016;53.582;10.062;2023-04-07T03:32:25;101733.50;;;6.69;46.81
17785;BME280;9016;53.582;10.062;2023-04-07T03:34:53;101730.88;;;6.68;46.62
17785;BME280;9016;53.582;10.062;2023-04-07T03:37:21;101737.06;;;6.68;46.53
17785;BME280;9016;53.582;10.062;2023-04-07T03:39:49;101742.53;;;6.62;46.96
17785;BME280;9016;53.582;10.062;2023-04-07T03:42:17;101733.75;;;6.60;46.89
17785;BME280;9016;53.582;10.062;2023-04-07T03:44:47;101740.03;;;6.58;46.88
17785;BME280;9016;53.582;10.062;2023-04-07T03:47:14;101741.94;;;6.53;47.14
17785;BME280;9016;53.582;10.062;2023-04-07T03:49:43;101741.69;;;6.60;46.80
17785;BME280;9016;53.582;10.062;2023-04-07T03:52:11;101740.53;;;6.70;46.64
17785;BME280;9016;53.582;10.062;2023-04-07T03:54:39;101751.50;;;6.58;46.81
17785;BME280;9016;53.582;10.062;2023-04-07T03:57:07;101759.50;;;6.55;46.77
17785;BME280;9016;53.582;10.062;2023-04-07T03:59:35;101759.38;;;6.60;47.10
17785;BME280;9016;53.582;10.062;2023-04-07T04:02:04;101753.00;;;6.67;46.72
17785;BME280;9016;53.582;10.062;2023-04-07T04:04:33;101758.56;;;6.58;47.27
17785;BME280;9016;53.582;10.062;2023-04-07T04:07:01;101757.06;;;6.48;47.47
17785;BME280;9016;53.582;10.062;2023-04-07T04:09:29;101755.91;;;6.58;47.24
17785;BME280;9016;53.582;10.062;2023-04-07T04:11:57;101757.78;;;6.54;47.15
17785;BME280;9016;53.582;10.062;2023-04-07T04:14:26;101765.97;;;6.44;47.40
17785;BME280;9016;53.582;10.062;2023-04-07T04:16:54;101767.59;;;6.51;47.03
17785;BME280;9016;53.582;10.062;2023-04-07T04:19:23;101760.47;;;6.51;47.01
17785;BME280;9016;53.582;10.062;2023-04-07T04:21:51;101756.22;;;6.46;47.00
17785;BME280;9016;53.582;10.062;2023-04-07T04:24:19;101758.84;;;6.47;47.16
17785;BME280;9016;53.582;10.062;2023-04-07T04:26:47;101764.22;;;6.44;47.07
17785;BME280;9016;53.582;10.062;2023-04-07T04:29:15;101771.06;;;6.51;46.81
17785;BME280;9016;53.582;10.062;2023-04-07T04:31:43;101766.56;;;6.55;46.49
17785;BME280;9016;53.582;10.062;2023-04-07T04:34:11;101764.84;;;6.54;46.46
17785;BME280;9016;53.582;10.062;2023-04-07T04:36:41;101773.72;;;6.53;46.79
17785;BME280;9016;53.582;10.062;2023-04-07T04:39:09;101772.88;;;6.49;46.64
17785;BME280;9016;53.582;10.062;2023-04-07T04:41:37;101767.84;;;6.40;46.79
17785;BME280;9016;53.582;10.062;2023-04-07T04:44:06;101778.69;;;6.31;47.12
17785;BME280;9016;53.582;10.062;2023-04-07T04:46:34;101784.97;;;6.27;46.98
17785;BME280;9016;53.582;10.062;2023-04-07T04:49:02;101779.56;;;6.32;46.79
17785;BME280;9016;53.582;10.062;2023-04-07T04:51:30;101788.19;;;6.40;46.88
17785;BME280;9016;53.582;10.062;2023-04-07T04:54:00;101796.97;;;6.40;46.78
17785;BME280;9016;53.582;10.062;2023-04-07T04:56:29;101798.03;;;6.33;47.19
17785;BME280;9016;53.582;10.062;2023-04-07T04:58:58;101794.50;;;6.33;46.90
17785;BME280;9016;53.582;10.062;2023-04-07T05:01:26;101806.94;;;6.31;46.89
17785;BME280;9016;53.582;10.062;2023-04-07T05:03:56;101802.59;;;6.28;46.66
17785;BME280;9016;53.582;10.062;2023-04-07T05:06:27;101798.91;;;6.34;46.79
17785;BME280;9016;53.582;10.062;2023-04-07T05:08:55;101799.81;;;6.33;46.82
17785;BME280;9016;53.582;10.062;2023-04-07T05:11:25;101806.84;;;6.34;47.04
17785;BME280;9016;53.582;10.062;2023-04-07T05:13:53;101805.19;;;6.30;47.19
17785;BME280;9016;53.582;10.062;2023-04-07T05:16:21;101814.81;;;6.34;47.10
17785;BME280;9016;53.582;10.062;2023-04-07T05:18:49;101814.06;;;6.27;47.24
17785;BME280;9016;53.582;10.062;2023-04-07T05:21:17;101818.38;;;6.31;46.99
17785;BME280;9016;53.582;10.062;2023-04-07T05:23:47;101816.50;;;6.36;47.01
17785;BME280;9016;53.582;10.062;2023-04-07T05:26:16;101804.31;;;6.31;46.94
17785;BME280;9016;53.582;10.062;2023-04-07T05:28:45;101829.50;;;6.45;46.98
17785;BME280;9016;53.582;10.062;2023-04-07T05:31:13;101831.06;;;6.52;47.07
17785;BME280;9016;53.582;10.062;2023-04-07T05:33:42;101827.78;;;6.43;47.07
17785;BME280;9016;53.582;10.062;2023-04-07T05:36:10;101826.97;;;6.41;47.29
17785;BME280;9016;53.582;10.062;2023-04-07T05:38:38;101833.13;;;6.41;47.42
17785;BME280;9016;53.582;10.062;2023-04-07T05:41:06;101842.69;;;6.47;46.88
17785;BME280;9016;53.582;10.062;2023-04-07T05:43:34;101840.59;;;6.59;47.16
17785;BME280;9016;53.582;10.062;2023-04-07T05:46:04;101837.22;;;6.54;46.82
17785;BME280;9016;53.582;10.062;2023-04-07T05:48:32;101838.88;;;6.57;46.71
17785;BME280;9016;53.582;10.062;2023-04-07T05:51:01;101849.47;;;6.57;47.00
17785;BME280;9016;53.582;10.062;2023-04-07T05:53:29;101852.22;;;6.54;46.74
17785;BME280;9016;53.582;10.062;2023-04-07T05:55:57;101856.53;;;6.58;46.98
17785;BME280;9016;53.582;10.062;2023-04-07T05:58:26;101854.47;;;6.69;46.65
17785;BME280;9016;53.582;10.062;2023-04-07T06:00:54;101859.16;;;6.90;46.25
17785;BME280;9016;53.582;10.062;2023-04-07T06:03:24;101874.69;;;6.71;46.83
17785;BME280;9016;53.582;10.062;2023-04-07T06:05:52;101861.91;;;6.87;46.67
17785;BME280;9016;53.582;10.062;2023-04-07T06:08:20;101874.06;;;6.94;46.24
17785;BME280;9016;53.582;10.062;2023-04-07T06:10:48;101864.25;;;6.99;46.50
17785;BME280;9016;53.582;10.062;2023-04-07T06:13:17;101855.84;;;6.83;46.32
17785;BME280;9016;53.582;10.062;2023-04-07T06:15:47;101865.19;;;6.96;46.17
17785;BME280;9016;53.582;10.062;2023-04-07T06:18:15;101872.25;;;6.96;46.04
17785;BME280;9016;53.582;10.062;2023-04-07T06:20:44;101876.72;;;6.94;46.01
17785;BME280;9016;53.582;10.062;2023-04-07T06:23:13;101875.22;;;6.85;45.84
17785;BME280;9016;53.582;10.062;2023-04-07T06:25:41;101876.03;;;6.87;46.09
17785;BME280;9016;53.582;10.062;2023-04-07T06:28:11;101879.34;;;6.95;45.72
17785;BME280;9016;53.582;10.062;2023-04-07T06:30:40;101885.97;;;7.12;45.62
17785;BME280;9016;53.582;10.062;2023-04-07T06:33:09;101893.63;;;7.22;45.46
17785;BME280;9016;53.582;10.062;2023-04-07T06:35:38;101894.13;;;7.35;44.95
17785;BME280;9016;53.582;10.062;2023-04-07T06:38:08;101894.84;;;7.40;45.07
17785;BME280;9016;53.582;10.062;2023-04-07T06:40:37;101899.16;;;7.44;44.71
17785;BME280;9016;53.582;10.062;2023-04-07T06:43:05;101891.97;;;7.49;44.38
17785;BME280;9016;53.582;10.062;2023-04-07T06:45:33;101896.22;;;7.54;44.34
17785;BME280;9016;53.582;10.062;2023-04-07T06:48:04;101901.53;;;7.54;44.50
17785;BME280;9016;53.582;10.062;2023-04-07T06:50:32;101906.41;;;7.68;44.58
17785;BME280;9016;53.582;10.062;2023-04-07T06:53:01;101912.41;;;7.74;43.94
17785;BME280;9016;53.582;10.062;2023-04-07T06:55:31;101903.72;;;7.98;43.56
17785;BME280;9016;53.582;10.062;2023-04-07T06:57:59;101904.47;;;8.02;42.85
17785;BME280;9016;53.582;10.062;2023-04-07T07:00:28;101901.97;;;7.97;42.96
17785;BME280;9016;53.582;10.062;2023-04-07T07:02:57;101904.56;;;7.99;43.33
17785;BME280;9016;53.582;10.062;2023-04-07T07:05:28;101905.78;;;8.17;42.71
17785;BME280;9016;53.582;10.062;2023-04-07T07:07:57;101914.38;;;8.26;42.63
17785;BME280;9016;53.582;10.062;2023-04-07T07:10:25;101916.41;;;8.44;41.78
17785;BME280;9016;53.582;10.062;2023-04-07T07:12:55;101919.66;;;8.52;41.96
17785;BME280;9016;53.582;10.062;2023-04-07T07:15:26;101902.84;;;8.53;41.73
17785;BME280;9016;53.582;10.062;2023-04-07T07:17:55;101907.31;;;8.77;41.21
17785;BME280;9016;53.582;10.062;2023-04-07T07:20:23;101906.19;;;9.09;40.39
17785;BME280;9016;53.582;10.062;2023-04-07T07:22:52;101895.97;;;10.77;37.54
17785;BME280;9016;53.582;10.062;2023-04-07T07:25:20;101893.88;;;12.56;34.65
17785;BME280;9016;53.582;10.062;2023-04-07T07:27:48;101894.16;;;13.68;32.27
17785;BME280;9016;53.582;10.062;2023-04-07T07:30:21;101887.66;;;14.81;31.09
17785;BME280;9016;53.582;10.062;2023-04-07T07:32:51;101893.31;;;15.91;29.27
17785;BME280;9016;53.582;10.062;2023-04-07T07:35:21;101885.25;;;16.97;28.53
17785;BME280;9016;53.582;10.062;2023-04-07T07:37:53;101885.41;;;17.46;26.71
17785;BME280;9016;53.582;10.062;2023-04-07T07:40:25;101899.63;;;17.86;26.02
17785;BME280;9016;53.582;10.062;2023-04-07T07:42:53;101899.81;;;18.67;25.53
17785;BME280;9016;53.582;10.062;2023-04-07T07:45:23;101897.44;;;18.63;25.51
17785;BME280;9016;53.582;10.062;2023-04-07T07:47:51;101903.94;;;19.30;24.28
17785;BME280;9016;53.582;10.062;2023-04-07T07:50:19;101902.91;;;18.74;24.59
17785;BME280;9016;53.582;10.062;2023-04-07T07:52:50;101903.94;;;18.37;24.93
17785;BME280;9016;53.582;10.062;2023-04-07T07:55:18;101908.13;;;19.23;24.80
17785;BME280;9016;53.582;10.062;2023-04-07T07:57:47;101907.50;;;19.30;24.50
17785;BME280;9016;53.582;10.062;2023-04-07T08:00:16;101909.69;;;19.60;23.91
17785;BME280;9016;53.582;10.062;2023-04-07T08:02:46;101914.50;;;19.22;24.65
17785;BME280;9016;53.582;10.062;2023-04-07T08:05:15;101913.16;;;19.16;24.47
17785;BME280;9016;53.582;10.062;2023-04-07T08:07:46;101913.44;;;20.46;23.07
17785;BME280;9016;53.582;10.062;2023-04-07T08:10:18;101918.72;;;20.58;22.74
17785;BME280;9016;53.582;10.062;2023-04-07T08:12:47;101914.44;;;20.45;23.08
17785;BME280;9016;53.582;10.062;2023-04-07T08:15:16;101921.25;;;20.28;22.56
17785;BME280;9016;53.582;10.062;2023-04-07T08:17:44;101920.75;;;20.12;22.54
17785;BME280;9016;53.582;10.062;2023-04-07T08:20:14;101926.00;;;20.47;22.46
17785;BME280;9016;53.582;10.062;2023-04-07T08:22:42;101926.50;;;20.41;22.74
17785;BME280;9016;53.582;10.062;2023-04-07T08:25:11;101923.97;;;19.84;22.98
17785;BME280;9016;53.582;10.062;2023-04-07T08:27:39;101933.31;;;20.24;22.05
17785;BME280;9016;53.582;10.062;2023-04-07T08:30:07;101935.00;;;20.03;22.44
17785;BME280;9016;53.582;10.062;2023-04-07T08:32:36;101932.16;;;20.49;22.07
17785;BME280;9016;53.582;10.062;2023-04-07T08:35:05;101925.03;;;21.11;21.15
17785;BME280;9016;53.582;10.062;2023-04-07T08:37:36;101936.75;;;19.93;22.19
17785;BME280;9016;53.582;10.062;2023-04-07T08:40:05;101924.44;;;19.67;22.69
17785;BME280;9016;53.582;10.062;2023-04-07T08:42:34;101931.84;;;19.30;22.98
17785;BME280;9016;53.582;10.062;2023-04-07T08:45:06;101934.34;;;19.44;23.29
17785;BME280;9016;53.582;10.062;2023-04-07T08:47:36;101927.97;;;19.45;23.16
17785;BME280;9016;53.582;10.062;2023-04-07T08:50:06;101929.38;;;19.95;22.46
17785;BME280;9016;53.582;10.062;2023-04-07T08:52:40;101938.34;;;20.07;22.17
17785;BME280;9016;53.582;10.062;2023-04-07T08:55:11;101932.19;;;20.81;21.53
17785;BME280;9016;53.582;10.062;2023-04-07T08:57:40;101936.53;;;20.61;21.10
17785;BME280;9016;53.582;10.062;2023-04-07T09:00:13;101936.00;;;19.91;22.12
17785;BME280;9016;53.582;10.062;2023-04-07T09:02:44;101941.53;;;19.79;21.81
17785;BME280;9016;53.582;10.062;2023-04-07T09:05:14;101928.88;;;20.34;21.11
17785;BME280;9016;53.582;10.062;2023-04-07T09:07:44;101938.41;;;20.49;20.86
17785;BME280;9016;53.582;10.062;2023-04-07T09:10:13;101933.03;;;21.13;20.91
17785;BME280;9016;53.582;10.062;2023-04-07T09:12:41;101925.84;;;21.23;20.90
17785;BME280;9016;53.582;10.062;2023-04-07T09:15:10;101929.84;;;21.90;20.63
17785;BME280;9016;53.582;10.062;2023-04-07T09:17:41;101921.13;;;21.45;21.05
17785;BME280;9016;53.582;10.062;2023-04-07T09:20:12;101933.88;;;20.39;21.72
17785;BME280;9016;53.582;10.062;2023-04-07T09:22:44;101928.88;;;20.12;21.77
17785;BME280;9016;53.582;10.062;2023-04-07T09:25:14;101937.97;;;20.33;21.49
17785;BME280;9016;53.582;10.062;2023-04-07T09:27:56;101937.31;;;20.52;21.55
17785;BME280;9016;53.582;10.062;2023-04-07T09:30:25;101939.72;;;20.34;21.56
17785;BME280;9016;53.582;10.062;2023-04-07T09:32:54;101926.03;;;19.13;22.64
17785;BME280;9016;53.582;10.062;2023-04-07T09:35:23;101931.97;;;18.94;22.94
17785;BME280;9016;53.582;10.062;2023-04-07T09:38:04;101926.16;;;18.40;23.05
17785;BME280;9016;53.582;10.062;2023-04-07T09:40:33;101927.41;;;18.24;23.31
17785;BME280;9016;53.582;10.062;2023-04-07T09:43:03;101926.31;;;18.14;23.61
17785;BME280;9016;53.582;10.062;2023-04-07T09:45:32;101936.81;;;16.52;24.64
17785;BME280;9016;53.582;10.062;2023-04-07T09:48:06;101942.19;;;15.69;25.78
17785;BME280;9016;53.582;10.062;2023-04-07T09:50:38;101937.59;;;15.71;26.12
17785;BME280;9016;53.582;10.062;2023-04-07T09:53:08;101928.00;;;15.67;26.05
17785;BME280;9016;53.582;10.062;2023-04-07T09:55:38;101939.31;;;15.44;26.51
17785;BME280;9016;53.582;10.062;2023-04-07T09:58:07;101935.59;;;15.60;26.55
17785;BME280;9016;53.582;10.062;2023-04-07T10:00:39;101937.75;;;15.68;26.29
17785;BME280;9016;53.582;10.062;2023-04-07T10:03:08;101936.00;;;14.79;27.42
17785;BME280;9016;53.582;10.062;2023-04-07T10:05:37;101938.66;;;14.50;27.97
17785;BME280;9016;53.582;10.062;2023-04-07T10:08:06;101943.81;;;14.84;27.68
17785;BME280;9016;53.582;10.062;2023-04-07T10:10:35;101931.94;;;14.27;27.66
17785;BME280;9016;53.582;10.062;2023-04-07T10:13:06;101941.28;;;14.36;27.82
17785;BME280;9016;53.582;10.062;2023-04-07T10:15:35;101941.94;;;14.08;28.24
17785;BME280;9016;53.582;10.062;2023-04-07T10:18:04;101942.25;;;13.86;28.71
17785;BME280;9016;53.582;10.062;2023-04-07T10:20:36;101946.50;;;14.06;27.65
17785;BME280;9016;53.582;10.062;2023-04-07T10:23:14;101936.38;;;14.11;28.22
17785;BME280;9016;53.582;10.062;2023-04-07T10:25:45;101943.06;;;14.20;27.70
17785;BME280;9016;53.582;10.062;2023-04-07T10:28:15;101933.47;;;14.47;28.07
17785;BME280;9016;53.582;10.062;2023-04-07T10:30:44;101939.16;;;14.72;27.53
17785;BME280;9016;53.582;10.062;2023-04-07T10:33:14;101950.59;;;14.44;27.86
17785;BME280;9016;53.582;10.062;2023-04-07T10:36:03;101937.78;;;14.18;28.04
17785;BME280;9016;53.582;10.062;2023-04-07T10:38:31;101939.44;;;14.52;28.21
17785;BME280;9016;53.582;10.062;2023-04-07T10:44:08;101932.09;;;14.40;28.35
17785;BME280;9016;53.582;10.062;2023-04-07T10:47:03;101933.38;;;14.64;28.43
17785;BME280;9016;53.582;10.062;2023-04-07T10:49:32;101937.94;;;14.15;29.07
17785;BME280;9016;53.582;10.062;2023-04-07T10:52:20;101936.75;;;14.05;28.50
17785;BME280;9016;53.582;10.062;2023-04-07T10:58:21;101941.63;;;14.45;29.46
17785;BME280;9016;53.582;10.062;2023-04-07T11:04:02;101940.97;;;14.25;29.77
17785;BME280;9016;53.582;10.062;2023-04-07T11:06:33;101953.94;;;14.17;29.78
17785;BME280;9016;53.582;10.062;2023-04-07T11:09:01;101941.97;;;13.91;30.40
17785;BME280;9016;53.582;10.062;2023-04-07T11:11:40;101939.59;;;14.18;29.95
17785;BME280;9016;53.582;10.062;2023-04-07T11:14:10;101947.31;;;14.24;30.34
17785;BME280;9016;53.582;10.062;2023-04-07T11:16:40;101935.47;;;14.28;30.74
17785;BME280;9016;53.582;10.062;2023-04-07T11:19:08;101938.56;;;14.20;31.07
17785;BME280;9016;53.582;10.062;2023-04-07T11:21:36;101934.16;;;14.04;31.03
17785;BME280;9016;53.582;10.062;2023-04-07T11:24:05;101937.94;;;14.00;30.93
17785;BME280;9016;53.582;10.062;2023-04-07T11:26:37;101942.38;;;13.68;31.79
17785;BME280;9016;53.582;10.062;2023-04-07T11:29:06;101930.47;;;13.73;32.13
17785;BME280;9016;53.582;10.062;2023-04-07T11:31:36;101939.25;;;13.93;31.90
17785;BME280;9016;53.582;10.062;2023-04-07T11:34:05;101933.25;;;13.87;31.88
17785;BME280;9016;53.582;10.062;2023-04-07T11:36:39;101934.63;;;13.79;31.56
17785;BME280;9016;53.582;10.062;2023-04-07T11:39:20;101944.59;;;13.60;31.11
17785;BME280;9016;53.582;10.062;2023-04-07T11:41:49;101934.47;;;13.49;30.67
17785;BME280;9016;53.582;10.062;2023-04-07T11:44:17;101948.31;;;13.57;30.86
17785;BME280;9016;53.582;10.062;2023-04-07T11:46:54;101949.09;;;13.59;30.28
17785;BME280;9016;53.582;10.062;2023-04-07T11:49:23;101944.44;;;13.63;29.92
17785;BME280;9016;53.582;10.062;2023-04-07T11:51:57;101949.09;;;13.59;30.04
17785;BME280;9016;53.582;10.062;2023-04-07T11:54:39;101948.25;;;13.42;30.43
17785;BME280;9016;53.582;10.062;2023-04-07T11:57:07;101947.16;;;13.29;30.39
17785;BME280;9016;53.582;10.062;2023-04-07T11:59:39;101948.31;;;13.57;30.94
17785;BME280;9016;53.582;10.062;2023-04-07T12:02:09;101948.75;;;13.65;30.82
17785;BME280;9016;53.582;10.062;2023-04-07T12:04:37;101952.91;;;13.55;31.13
17785;BME280;9016;53.582;10.062;2023-04-07T12:07:08;101950.31;;;13.20;31.12
17785;BME280;9016;53.582;10.062;2023-04-07T12:09:36;101947.56;;;13.21;31.00
17785;BME280;9016;53.582;10.062;2023-04-07T12:12:06;101956.16;;;13.11;30.96
17785;BME280;9016;53.582;10.062;2023-04-07T12:14:36;101952.59;;;13.27;30.83
17785;BME280;9016;53.582;10.062;2023-04-07T12:17:04;101954.81;;;13.19;30.60
17785;BME280;9016;53.582;10.062;2023-04-07T12:19:38;101950.63;;;13.14;30.82
17785;BME280;9016;53.582;10.062;2023-04-07T12:22:06;101951.38;;;12.98;31.16
17785;BME280;9016;53.582;10.062;2023-04-07T12:24:34;101967.34;;;13.19;31.11
17785;BME280;9016;53.582;10.062;2023-04-07T12:27:03;101960.50;;;13.13;30.77
17785;BME280;9016;53.582;10.062;2023-04-07T12:29:31;101960.41;;;13.15;29.98
17785;BME280;9016;53.582;10.062;2023-04-07T12:32:01;101962.34;;;13.28;30.23
17785;BME280;9016;53.582;10.062;2023-04-07T12:34:29;101964.19;;;13.28;30.06
17785;BME280;9016;53.582;10.062;2023-04-07T12:36:58;101957.72;;;13.32;30.41
17785;BME280;9016;53.582;10.062;2023-04-07T12:39:26;101968.59;;;13.29;31.10
17785;BME280;9016;53.582;10.062;2023-04-07T12:41:54;101954.88;;;13.35;31.78
17785;BME280;9016;53.582;10.062;2023-04-07T12:44:23;101965.19;;;13.25;31.69
17785;BME280;9016;53.582;10.062;2023-04-07T12:46:51;101973.16;;;13.27;31.03
17785;BME280;9016;53.582;10.062;2023-04-07T12:49:19;101963.31;;;13.27;30.55
17785;BME280;9016;53.582;10.062;2023-04-07T12:51:47;101967.88;;;13.25;30.27
17785;BME280;9016;53.582;10.062;2023-04-07T12:54:17;101968.28;;;13.18;30.66
17785;BME280;9016;53.582;10.062;2023-04-07T12:56:45;101959.28;;;13.02;31.37
17785;BME280;9016;53.582;10.062;2023-04-07T12:59:13;101968.44;;;13.15;31.33
17785;BME280;9016;53.582;10.062;2023-04-07T13:01:41;101969.16;;;13.18;31.24
17785;BME280;9016;53.582;10.062;2023-04-07T13:04:09;101960.72;;;13.26;31.03
17785;BME280;9016;53.582;10.062;2023-04-07T13:06:38;101955.91;;;13.32;30.86
17785;BME280;9016;53.582;10.062;2023-04-07T13:09:06;101952.50;;;13.46;30.72
17785;BME280;9016;53.582;10.062;2023-04-07T13:11:38;101961.75;;;13.73;30.86
17785;BME280;9016;53.582;10.062;2023-04-07T13:14:06;101956.72;;;13.67;30.90
17785;BME280;9016;53.582;10.062;2023-04-07T13:16:37;101948.06;;;13.62;30.99
17785;BME280;9016;53.582;10.062;2023-04-07T13:19:04;101953.13;;;13.83;30.93